createdAt,value
2022-11-01T00:01:57.435Z,90.14
2022-11-01T00:04:25.394Z,89.16
2022-11-01T00:06:54.681Z,88.40
2022-11-01T00:09:22.634Z,89.62
2022-11-01T00:11:50.798Z,89.93
2022-11-01T00:14:19.946Z,88.07
2022-11-01T00:16:48.299Z,88.28
2022-11-01T00:19:16.547Z,91.03
2022-11-01T00:21:44.481Z,91.20
2022-11-01T00:24:13.687Z,90.24
2022-11-01T00:26:41.874Z,88.91
2022-11-01T00:29:09.806Z,90.61
2022-11-01T00:31:37.804Z,90.24
2022-11-01T00:34:05.729Z,89.09
2022-11-01T00:36:33.818Z,88.79
2022-11-01T00:39:01.866Z,87.83
2022-11-01T00:41:31.127Z,87.95
2022-11-01T00:43:59.117Z,87.98
2022-11-01T00:46:27.081Z,88.03
2022-11-01T00:48:54.916Z,89.45
2022-11-01T00:51:22.778Z,89.68
2022-11-01T00:53:50.659Z,89.76
2022-11-01T00:56:18.711Z,88.76
2022-11-01T00:58:47.946Z,89.28
2022-11-01T01:01:15.918Z,89.33
2022-11-01T01:03:43.868Z,88.30
2022-11-01T01:06:11.733Z,88.60
2022-11-01T01:08:39.576Z,90.11
2022-11-01T01:11:07.390Z,91.10
2022-11-01T01:13:35.262Z,90.77
2022-11-01T01:16:08.923Z,89.21
2022-11-01T01:18:36.833Z,88.42
2022-11-01T01:21:05.930Z,91.09
2022-11-01T01:23:33.834Z,90.76
2022-11-01T01:26:05.847Z,90.73
2022-11-01T01:28:33.740Z,90.02
2022-11-01T01:31:01.636Z,89.80
2022-11-01T01:33:30.856Z,90.34
2022-11-01T01:36:01.175Z,88.04
2022-11-01T01:38:29.019Z,87.07
2022-11-01T01:41:16.989Z,87.69
2022-11-01T01:43:45.530Z,86.72
2022-11-01T01:46:13.624Z,87.36
2022-11-01T01:48:45.574Z,86.44
2022-11-01T01:51:17.165Z,86.93
2022-11-01T01:53:48.530Z,85.99
2022-11-01T01:56:20.966Z,86.59
2022-11-01T01:58:55.507Z,86.46
2022-11-01T02:01:23.837Z,85.60
2022-11-01T02:03:53.161Z,88.86
2022-11-01T02:08:59.511Z,90.25
2022-11-01T02:11:27.535Z,89.44
2022-11-01T02:13:55.971Z,88.59
2022-11-01T02:16:48.051Z,88.56
2022-11-01T02:19:34.981Z,88.79
2022-11-01T02:22:08.599Z,88.60
2022-11-01T02:25:11.017Z,91.54
2022-11-01T02:27:59.854Z,89.53
2022-11-01T02:30:40.008Z,89.66
2022-11-01T02:33:18.096Z,90.89
2022-11-01T02:35:56.679Z,90.87
2022-11-01T02:38:30.567Z,91.97
2022-11-01T02:41:09.817Z,91.63
2022-11-01T02:43:45.123Z,91.96
2022-11-01T02:46:30.882Z,92.32
2022-11-01T02:49:00.423Z,89.85
2022-11-01T02:51:29.521Z,89.45
2022-11-01T02:53:57.302Z,92.77
2022-11-01T02:56:25.146Z,90.65
2022-11-01T02:58:53.806Z,89.44
2022-11-01T03:01:25.581Z,89.19
2022-11-01T03:03:57.707Z,89.38
2022-11-01T03:06:34.210Z,89.75
2022-11-01T03:09:05.548Z,88.55
2022-11-01T03:11:39.940Z,87.88
2022-11-01T03:14:18.916Z,86.49
2022-11-01T03:16:56.103Z,87.77
2022-11-01T03:19:38.231Z,86.88
2022-11-01T03:22:12.140Z,86.32
2022-11-01T03:24:46.819Z,87.38
2022-11-01T03:27:19.119Z,87.06
2022-11-01T03:29:56.348Z,87.68
2022-11-01T03:32:27.845Z,87.71
2022-11-01T03:34:57.073Z,87.20
2022-11-01T03:37:27.401Z,86.55
2022-11-01T03:39:56.718Z,88.30
2022-11-01T03:42:25.617Z,89.91
2022-11-01T03:44:59.216Z,89.05
2022-11-01T03:47:27.211Z,88.62
2022-11-01T03:50:14.023Z,88.10
2022-11-01T03:52:43.858Z,88.14
2022-11-01T03:55:19.055Z,87.96
2022-11-01T03:57:47.883Z,89.18
2022-11-01T04:00:17.462Z,89.66
2022-11-01T04:02:45.292Z,87.40
2022-11-01T04:05:13.215Z,87.81
2022-11-01T04:07:41.352Z,89.54
2022-11-01T04:10:11.198Z,89.67
2022-11-01T04:12:39.204Z,88.45
2022-11-01T04:15:24.760Z,88.77
2022-11-01T04:18:21.992Z,88.49
2022-11-01T04:20:50.319Z,87.88
2022-11-01T04:23:18.717Z,89.54
2022-11-01T04:25:48.305Z,88.55
2022-11-01T04:28:16.350Z,88.04
2022-11-01T04:30:44.846Z,87.54
2022-11-01T04:33:12.816Z,87.92
2022-11-01T04:35:40.841Z,87.62
2022-11-01T04:38:10.232Z,87.32
2022-11-01T04:40:38.271Z,88.85
2022-11-01T04:43:07.512Z,88.73
2022-11-01T04:45:35.358Z,88.52
2022-11-01T04:48:04.854Z,87.78
2022-11-01T04:50:33.010Z,87.50
2022-11-01T04:53:01.660Z,87.42
2022-11-01T04:55:29.942Z,88.67
2022-11-01T04:57:58.435Z,89.05
2022-11-01T05:00:27.798Z,88.58
2022-11-01T05:03:02.605Z,88.43
2022-11-01T05:05:31.455Z,88.30
2022-11-01T05:08:03.852Z,87.20
2022-11-01T05:10:32.026Z,87.19
2022-11-01T05:13:00.341Z,88.08
2022-11-01T05:15:29.967Z,88.02
2022-11-01T05:17:57.878Z,87.63
2022-11-01T05:20:26.282Z,87.42
2022-11-01T05:22:54.115Z,88.23
2022-11-01T05:25:21.973Z,87.66
2022-11-01T05:27:49.810Z,89.92
2022-11-01T05:30:17.862Z,88.96
2022-11-01T05:32:47.088Z,89.38
2022-11-01T05:35:14.938Z,88.42
2022-11-01T05:37:42.751Z,88.97
2022-11-01T05:40:11.925Z,89.48
2022-11-01T05:42:40.410Z,87.79
2022-11-01T05:45:10.028Z,87.40
2022-11-01T05:47:40.291Z,87.33
2022-11-01T05:50:11.324Z,86.98
2022-11-01T05:52:39.640Z,87.11
2022-11-01T05:55:09.560Z,86.85
2022-11-01T05:57:37.555Z,87.09
2022-11-01T06:00:07.208Z,87.23
2022-11-01T06:02:41.736Z,88.09
2022-11-01T06:05:11.243Z,86.88
2022-11-01T06:07:39.080Z,88.06
2022-11-01T06:10:07.798Z,87.44
2022-11-01T06:12:35.685Z,87.86
2022-11-01T06:15:03.610Z,86.89
2022-11-01T06:17:31.432Z,88.46
2022-11-01T06:19:59.683Z,87.72
2022-11-01T06:22:29.045Z,86.14
2022-11-01T06:24:56.929Z,87.30
2022-11-01T06:27:24.760Z,86.39
2022-11-01T06:29:52.618Z,87.34
2022-11-01T06:32:20.599Z,86.69
2022-11-01T06:34:48.457Z,86.45
2022-11-01T06:37:16.318Z,86.63
2022-11-01T06:39:45.565Z,85.20
2022-11-01T06:42:13.371Z,86.19
2022-11-01T06:44:41.242Z,86.09
2022-11-01T06:47:09.076Z,86.89
2022-11-01T06:49:36.962Z,85.35
2022-11-01T06:52:05.223Z,85.79
2022-11-01T06:54:33.667Z,85.97
2022-11-01T06:57:02.904Z,87.17
2022-11-01T06:59:30.752Z,86.06
2022-11-01T07:01:59.130Z,86.16
2022-11-01T07:04:29.131Z,85.49
2022-11-01T07:06:56.963Z,84.73
2022-11-01T07:09:24.979Z,83.98
2022-11-01T07:11:52.840Z,84.01
2022-11-01T07:14:22.197Z,83.64
2022-11-01T07:16:50.356Z,83.59
2022-11-01T07:19:18.259Z,84.10
2022-11-01T07:21:46.131Z,84.74
2022-11-01T07:24:14.241Z,84.38
2022-11-01T07:26:42.052Z,83.01
2022-11-01T07:29:10.042Z,84.57
2022-11-01T07:31:40.082Z,84.40
2022-11-01T07:34:07.967Z,83.00
2022-11-01T07:36:35.914Z,83.20
2022-11-01T07:39:03.968Z,82.63
2022-11-01T07:41:31.828Z,82.78
2022-11-01T07:43:59.676Z,80.50
2022-11-01T07:46:27.533Z,81.32
2022-11-01T07:48:56.706Z,80.88
2022-11-01T07:51:24.539Z,80.46
2022-11-01T07:53:52.418Z,81.03
2022-11-01T07:56:21.717Z,80.03
2022-11-01T07:58:49.673Z,80.53
2022-11-01T08:01:17.655Z,80.34
2022-11-01T08:03:45.544Z,79.87
2022-11-01T08:06:14.749Z,79.87
2022-11-01T08:08:42.552Z,79.41
2022-11-01T08:11:10.358Z,79.50
2022-11-01T08:13:38.198Z,79.24
2022-11-01T08:16:06.891Z,80.11
2022-11-01T08:18:34.774Z,79.12
2022-11-01T08:21:02.610Z,78.04
2022-11-01T08:23:31.791Z,78.56
2022-11-01T08:25:59.696Z,77.77
2022-11-01T08:28:29.713Z,77.83
2022-11-01T08:30:57.564Z,77.07
2022-11-01T08:33:25.646Z,77.83
2022-11-01T08:35:53.495Z,76.84
2022-11-01T08:38:21.387Z,76.55
2022-11-01T08:40:50.581Z,75.83
2022-11-01T08:43:18.654Z,75.78
2022-11-01T08:45:46.574Z,75.38
2022-11-01T08:48:14.785Z,75.66
2022-11-01T08:50:42.907Z,74.67
2022-11-01T08:53:12.372Z,73.68
2022-11-01T08:55:41.764Z,74.62
2022-11-01T08:58:11.086Z,75.33
2022-11-01T09:00:38.937Z,74.14
2022-11-01T09:03:07.087Z,74.40
2022-11-01T09:05:34.935Z,74.34
2022-11-01T09:08:03.336Z,73.89
2022-11-01T09:10:32.209Z,73.41
2022-11-01T09:13:00.738Z,73.39
2022-11-01T09:15:30.575Z,74.33
2022-11-01T09:17:58.675Z,73.42
2022-11-01T09:20:28.144Z,73.30
2022-11-01T09:22:55.997Z,73.62
2022-11-01T09:25:23.994Z,71.71
2022-11-01T09:27:51.850Z,71.69
2022-11-01T09:30:20.039Z,71.14
2022-11-01T09:32:49.224Z,71.90
2022-11-01T09:35:18.054Z,71.36
2022-11-01T09:37:45.979Z,71.67
2022-11-01T09:40:15.997Z,70.38
2022-11-01T09:42:45.937Z,69.94
2022-11-01T09:45:18.850Z,69.64
2022-11-01T09:47:51.562Z,70.00
2022-11-01T09:50:23.533Z,70.64
2022-11-01T09:52:52.630Z,69.70
2022-11-01T09:55:42.354Z,71.01
2022-11-01T09:58:21.617Z,68.91
2022-11-01T10:00:59.520Z,71.11
2022-11-01T10:03:44.415Z,69.96
2022-11-01T10:06:17.723Z,70.33
2022-11-01T10:08:51.841Z,69.67
2022-11-01T10:11:44.738Z,70.31
2022-11-01T10:14:24.657Z,70.62
2022-11-01T10:17:04.741Z,70.86
2022-11-01T10:19:35.393Z,71.43
2022-11-01T10:22:08.501Z,70.36
2022-11-01T10:24:40.775Z,70.43
2022-11-01T10:27:15.189Z,72.14
2022-11-01T10:29:48.709Z,70.76
2022-11-01T10:32:25.536Z,72.41
2022-11-01T10:34:56.306Z,71.74
2022-11-01T10:37:29.854Z,70.59
2022-11-01T10:40:06.332Z,72.16
2022-11-01T10:42:37.928Z,72.48
2022-11-01T10:45:08.865Z,73.10
2022-11-01T10:47:36.861Z,72.88
2022-11-01T10:50:15.685Z,73.10
2022-11-01T10:52:50.848Z,73.07
2022-11-01T10:55:23.346Z,72.77
2022-11-01T10:57:57.363Z,72.01
2022-11-01T11:00:25.281Z,71.83
2022-11-01T11:02:57.408Z,72.34
2022-11-01T11:05:31.312Z,72.02
2022-11-01T11:08:01.779Z,69.71
2022-11-01T11:10:30.697Z,70.05
2022-11-01T11:13:02.513Z,68.76
2022-11-01T11:15:39.385Z,67.54
2022-11-01T11:18:16.962Z,67.16
2022-11-01T11:20:51.816Z,68.00
2022-11-01T11:23:21.039Z,68.10
2022-11-01T11:25:50.469Z,68.39
2022-11-01T11:28:30.538Z,67.78
2022-11-01T11:31:11.382Z,69.10
2022-11-01T11:33:39.320Z,68.85
2022-11-01T11:36:09.359Z,68.93
2022-11-01T11:38:48.268Z,69.24
2022-11-01T11:41:29.118Z,69.71
2022-11-01T11:43:57.068Z,69.16
2022-11-01T11:46:25.182Z,69.07
2022-11-01T11:48:56.759Z,69.94
2022-11-01T11:51:29.694Z,71.20
2022-11-01T11:54:16.463Z,70.86
2022-11-01T11:56:45.026Z,71.61
2022-11-01T11:59:22.485Z,71.22
2022-11-01T12:01:50.621Z,71.46
2022-11-01T12:04:20.947Z,71.96
2022-11-01T12:06:50.677Z,71.66
2022-11-01T12:09:43.037Z,72.66
2022-11-01T12:12:18.283Z,71.79
2022-11-01T12:14:46.352Z,73.64
2022-11-01T12:17:33.094Z,74.57
2022-11-01T12:20:13.751Z,75.21
2022-11-01T12:22:47.965Z,77.30
2022-11-01T12:25:19.104Z,76.30
2022-11-01T12:27:56.311Z,76.22
2022-11-01T12:30:25.909Z,77.39
2022-11-01T12:32:55.782Z,78.82
2022-11-01T12:35:30.635Z,78.44
2022-11-01T12:38:33.125Z,77.69
2022-11-01T12:41:13.431Z,78.97
2022-11-01T12:44:04.846Z,76.46
2022-11-01T12:46:39.373Z,78.38
2022-11-01T12:49:15.801Z,77.89
2022-11-01T12:51:50.227Z,79.06
2022-11-01T12:54:26.934Z,78.49
2022-11-01T12:56:55.867Z,79.05
2022-11-01T12:59:28.203Z,78.82
2022-11-01T13:02:03.532Z,77.08
2022-11-01T13:04:35.826Z,78.11
2022-11-01T13:07:24.014Z,78.22
2022-11-01T13:10:03.081Z,77.36
2022-11-01T13:12:42.779Z,78.49
2022-11-01T13:15:18.141Z,76.45
2022-11-01T13:17:54.354Z,76.12
2022-11-01T13:20:35.209Z,74.95
2022-11-01T13:23:16.513Z,75.64
2022-11-01T13:25:52.051Z,76.05
2022-11-01T13:28:31.645Z,74.83
2022-11-01T13:31:04.539Z,73.41
2022-11-01T13:33:43.988Z,74.92
2022-11-01T13:36:19.288Z,75.11
2022-11-01T13:38:54.441Z,74.12
2022-11-01T13:41:29.742Z,73.50
2022-11-01T13:44:01.269Z,75.02
2022-11-01T13:46:53.817Z,75.60
2022-11-01T13:49:45.743Z,74.56
2022-11-01T13:52:19.314Z,75.12
2022-11-01T13:54:54.684Z,75.06
2022-11-01T13:57:26.768Z,74.42
2022-11-01T13:59:57.346Z,75.12
2022-11-01T14:02:58.030Z,74.83
2022-11-01T14:05:38.587Z,74.56
2022-11-01T14:08:37.205Z,75.64
2022-11-01T14:11:05.279Z,75.24
2022-11-01T14:13:38.014Z,74.49
2022-11-01T14:16:28.072Z,75.15
2022-11-01T14:19:21.094Z,76.40
2022-11-01T14:21:54.039Z,75.87
2022-11-01T14:24:35.199Z,73.96
2022-11-01T14:27:20.899Z,73.90
2022-11-01T14:29:54.559Z,75.25
2022-11-01T14:32:24.985Z,74.20
2022-11-01T14:35:01.337Z,73.88
2022-11-01T14:37:35.830Z,75.33
2022-11-01T14:40:21.715Z,75.54
2022-11-01T14:42:51.821Z,74.35
2022-11-01T14:45:37.315Z,74.14
2022-11-01T14:48:13.367Z,74.78
2022-11-01T14:50:48.599Z,74.79
2022-11-01T14:53:24.755Z,74.16
2022-11-01T14:56:05.076Z,73.18
2022-11-01T14:58:33.111Z,73.97
2022-11-01T15:01:08.197Z,73.86
2022-11-01T15:03:36.225Z,73.73
2022-11-01T15:06:04.750Z,75.93
2022-11-01T15:08:38.175Z,74.46
2022-11-01T15:11:07.476Z,74.19
2022-11-01T15:13:39.268Z,73.92
2022-11-01T15:16:16.308Z,74.11
2022-11-01T15:18:49.391Z,75.23
2022-11-01T15:21:23.120Z,75.17
2022-11-01T15:23:55.998Z,74.80
2022-11-01T15:26:27.845Z,75.32
2022-11-01T15:28:59.013Z,75.95
2022-11-01T15:31:29.219Z,76.25
2022-11-01T15:33:59.318Z,76.19
2022-11-01T15:36:33.547Z,76.06
2022-11-01T15:39:03.408Z,76.91
2022-11-01T15:41:32.845Z,76.60
2022-11-01T15:44:02.469Z,76.81
2022-11-01T15:46:37.623Z,75.77
2022-11-01T15:49:09.927Z,76.59
2022-11-01T15:51:42.416Z,76.48
2022-11-01T15:54:20.142Z,76.97
2022-11-01T15:56:51.753Z,76.88
2022-11-01T15:59:27.675Z,76.99
2022-11-01T16:02:00.900Z,77.34
2022-11-01T16:04:37.025Z,77.34
2022-11-01T16:07:08.083Z,77.34
2022-11-01T16:09:40.259Z,76.95
2022-11-01T16:12:18.483Z,77.11
2022-11-01T16:14:53.331Z,77.51
2022-11-01T16:17:32.526Z,77.66
2022-11-01T16:20:04.688Z,77.51
2022-11-01T16:22:38.163Z,77.73
2022-11-01T16:25:16.425Z,77.15
2022-11-01T16:27:57.222Z,77.66
2022-11-01T16:30:45.324Z,77.64
2022-11-01T16:33:24.032Z,77.53
2022-11-01T16:35:54.662Z,77.61
2022-11-01T16:38:29.208Z,78.00
2022-11-01T16:40:59.285Z,78.34
2022-11-01T16:43:29.623Z,77.81
2022-11-01T16:45:58.071Z,77.58
2022-11-01T16:48:29.353Z,77.81
2022-11-01T16:50:58.964Z,77.57
2022-11-01T16:53:29.274Z,78.20
2022-11-01T16:56:16.822Z,78.17
2022-11-01T16:58:52.038Z,77.93
2022-11-01T17:01:22.754Z,77.87
2022-11-01T17:03:53.689Z,78.36
2022-11-01T17:06:22.183Z,78.43
2022-11-01T17:08:50.050Z,79.14
2022-11-01T17:11:19.718Z,78.78
2022-11-01T17:13:47.630Z,78.87
2022-11-01T17:16:23.405Z,79.01
2022-11-01T17:18:59.353Z,79.23
2022-11-01T17:21:31.050Z,79.05
2022-11-01T17:23:59.427Z,79.40
2022-11-01T17:26:27.892Z,78.99
2022-11-01T17:28:55.852Z,79.17
2022-11-01T17:31:26.886Z,79.09
2022-11-01T17:33:59.144Z,79.16
2022-11-01T17:36:28.666Z,79.07
2022-11-01T17:38:56.734Z,79.37
2022-11-01T17:41:27.464Z,79.76
2022-11-01T17:43:55.512Z,80.38
2022-11-01T17:46:26.870Z,80.21
2022-11-01T17:48:56.262Z,79.52
2022-11-01T17:51:24.136Z,79.23
2022-11-01T17:53:55.742Z,78.75
2022-11-01T17:56:24.016Z,78.78
2022-11-01T17:58:53.678Z,80.09
2022-11-01T18:01:22.260Z,80.14
2022-11-01T18:03:50.598Z,79.96
2022-11-01T18:06:20.048Z,80.20
2022-11-01T18:08:50.838Z,80.56
2022-11-01T18:11:34.289Z,80.01
2022-11-01T18:14:06.995Z,79.65
2022-11-01T18:16:42.151Z,79.92
2022-11-01T18:19:28.323Z,79.74
2022-11-01T18:22:09.526Z,80.66
2022-11-01T18:24:44.026Z,80.16
2022-11-01T18:27:13.277Z,80.26
2022-11-01T18:29:43.238Z,80.08
2022-11-01T18:32:19.270Z,80.22
2022-11-01T18:34:51.867Z,79.80
2022-11-01T18:37:27.710Z,80.25
2022-11-01T18:40:03.815Z,80.96
2022-11-01T18:42:32.079Z,81.05
2022-11-01T18:45:15.931Z,80.55
2022-11-01T18:47:48.968Z,80.22
2022-11-01T18:50:23.542Z,80.25
2022-11-01T18:53:02.355Z,80.55
2022-11-01T18:55:33.550Z,80.76
2022-11-01T18:58:14.002Z,80.79
2022-11-01T19:00:42.820Z,80.20
2022-11-01T19:03:21.798Z,80.36
2022-11-01T19:05:52.166Z,80.27
2022-11-01T19:08:25.701Z,79.51
2022-11-01T19:10:54.860Z,79.81
2022-11-01T19:13:28.706Z,79.72
2022-11-01T19:15:58.045Z,79.96
2022-11-01T19:18:26.532Z,79.43
2022-11-01T19:20:55.986Z,79.30
2022-11-01T19:23:37.281Z,79.76
2022-11-01T19:26:05.360Z,80.10
2022-11-01T19:28:36.994Z,79.90
2022-11-01T19:31:08.495Z,81.01
2022-11-01T19:33:40.059Z,80.77
2022-11-01T19:36:15.446Z,80.24
2022-11-01T19:38:45.246Z,80.25
2022-11-01T19:41:15.507Z,79.26
2022-11-01T19:43:43.414Z,80.25
2022-11-01T19:46:13.840Z,80.19
2022-11-01T19:48:41.696Z,79.87
2022-11-01T19:51:15.997Z,79.95
2022-11-01T19:53:45.428Z,81.38
2022-11-01T19:56:14.961Z,80.73
2022-11-01T19:58:45.387Z,80.59
2022-11-01T20:01:34.720Z,80.75
2022-11-01T20:04:04.474Z,80.59
2022-11-01T20:06:37.352Z,80.48
2022-11-01T20:09:12.444Z,80.45
2022-11-01T20:11:40.344Z,80.45
2022-11-01T20:14:08.202Z,80.00
2022-11-01T20:16:36.050Z,80.71
2022-11-01T20:19:03.886Z,80.22
2022-11-01T20:21:31.858Z,80.17
2022-11-01T20:23:59.969Z,80.52
2022-11-01T20:26:29.150Z,80.60
2022-11-01T20:28:57.137Z,81.48
2022-11-01T20:31:25.792Z,80.97
2022-11-01T20:33:54.035Z,81.65
2022-11-01T20:36:22.574Z,81.74
2022-11-01T20:38:50.682Z,82.55
2022-11-01T20:41:19.154Z,81.37
2022-11-01T20:43:48.338Z,81.24
2022-11-01T20:46:16.391Z,80.86
2022-11-01T20:48:45.143Z,80.47
2022-11-01T20:51:13.212Z,80.18
2022-11-01T20:53:41.514Z,80.21
2022-11-01T20:56:09.968Z,79.81
2022-11-01T20:58:40.575Z,79.09
2022-11-01T21:01:16.361Z,79.91
2022-11-01T21:03:44.461Z,79.42
2022-11-01T21:06:14.534Z,79.71
2022-11-01T21:08:44.970Z,80.23
2022-11-01T21:11:20.903Z,79.96
2022-11-01T21:13:50.895Z,79.20
2022-11-01T21:16:24.446Z,80.04
2022-11-01T21:18:54.798Z,79.97
2022-11-01T21:21:33.291Z,79.16
2022-11-01T21:24:15.971Z,78.73
2022-11-01T21:26:44.025Z,79.58
2022-11-01T21:29:20.721Z,79.62
2022-11-01T21:31:49.911Z,80.24
2022-11-01T21:34:25.499Z,80.33
2022-11-01T21:36:53.583Z,80.22
2022-11-01T21:39:23.488Z,79.52
2022-11-01T21:41:52.728Z,79.70
2022-11-01T21:44:26.179Z,79.82
2022-11-01T21:46:56.076Z,79.73
2022-11-01T21:49:26.879Z,80.33
2022-11-01T21:51:56.380Z,79.95
2022-11-01T21:54:24.249Z,80.37
2022-11-01T21:56:52.076Z,80.75
2022-11-01T21:59:20.209Z,80.47
2022-11-01T22:01:49.145Z,80.70
2022-11-01T22:04:18.923Z,79.91
2022-11-01T22:06:48.887Z,81.24
2022-11-01T22:09:18.399Z,80.44
2022-11-01T22:11:46.285Z,80.94
2022-11-01T22:14:14.251Z,81.08
2022-11-01T22:16:42.167Z,80.69
2022-11-01T22:19:09.982Z,80.89
2022-11-01T22:21:39.359Z,80.40
2022-11-01T22:24:07.884Z,79.98
2022-11-01T22:26:35.741Z,80.21
2022-11-01T22:29:03.552Z,80.14
2022-11-01T22:31:31.551Z,80.20
2022-11-01T22:33:59.341Z,80.41
2022-11-01T22:36:29.015Z,80.75
2022-11-01T22:39:00.121Z,81.41
2022-11-01T22:41:33.066Z,81.49
2022-11-01T22:44:05.560Z,80.81
2022-11-01T22:46:43.155Z,81.42
2022-11-01T22:49:16.291Z,81.00
2022-11-01T22:51:46.186Z,80.92
2022-11-01T22:54:28.949Z,81.11
2022-11-01T22:57:01.884Z,80.75
2022-11-01T22:59:33.348Z,80.39
2022-11-01T23:02:22.636Z,80.00
2022-11-01T23:04:50.777Z,80.07
2022-11-01T23:07:29.455Z,80.06
2022-11-01T23:10:05.178Z,80.58
2022-11-01T23:12:51.949Z,80.42
2022-11-01T23:15:26.949Z,80.76
2022-11-01T23:17:54.993Z,80.20
2022-11-01T23:20:22.815Z,80.78
2022-11-01T23:22:50.785Z,80.40
2022-11-01T23:25:19.992Z,80.47
2022-11-01T23:27:47.856Z,80.26
2022-11-01T23:30:15.822Z,80.78
2022-11-01T23:32:44.768Z,80.73
2022-11-01T23:35:15.909Z,80.54
2022-11-01T23:37:44.793Z,80.62
2022-11-01T23:40:16.179Z,79.39
2022-11-01T23:42:46.061Z,79.51
2022-11-01T23:45:29.308Z,79.39
2022-11-01T23:47:57.388Z,79.09
2022-11-01T23:50:30.279Z,79.50
2022-11-01T23:53:00.288Z,79.63
2022-11-01T23:55:30.767Z,79.11
2022-11-01T23:58:02.649Z,79.09
